Time;durP1;ratioP1;P1;durP2;ratioP2;P2;SDS_P1;SDS_P2;PMS_P1;PMS_P2;Temp;Humidity;BMP_temperature;BMP_pressure;BME280_temperature;BME280_humidity;BME280_pressure;Samples;Min_cycle;Max_cycle;Signal;HPM_P1;HPM_P2
2023/10/29 00:00:10;;;;;;;5.72;4.05;;;12.10;99.90;;;;;;5133012;27;20038;-69
2023/10/29 00:02:37;;;;;;;6.18;4.18;;;12.00;99.90;;;;;;5133812;28;20023;-68
2023/10/29 00:05:03;;;;;;;8.35;4.18;;;12.00;99.90;;;;;;5133451;27;20027;-73
2023/10/29 00:07:29;;;;;;;6.18;4.15;;;12.00;99.90;;;;;;5133671;27;20029;-68
2023/10/29 00:09:55;;;;;;;5.40;3.70;;;11.90;99.90;;;;;;5133825;28;20023;-69
2023/10/29 00:12:20;;;;;;;7.25;3.80;;;12.00;99.90;;;;;;5133336;28;20027;-69
2023/10/29 00:14:46;;;;;;;9.32;4.15;;;12.00;99.90;;;;;;5133771;28;20023;-68
2023/10/29 00:17:12;;;;;;;9.55;4.72;;;12.00;99.90;;;;;;5132855;28;20570;-69
2023/10/29 00:19:38;;;;;;;9.95;4.13;;;11.90;99.90;;;;;;5133319;28;20387;-68
2023/10/29 00:22:03;;;;;;;6.45;4.10;;;11.90;99.90;;;;;;5135498;27;20020;-76
2023/10/29 00:24:29;;;;;;;6.60;4.22;;;11.90;99.90;;;;;;5137647;27;20352;-69
2023/10/29 00:26:55;;;;;;;6.53;4.07;;;11.80;99.90;;;;;;5137635;27;20023;-69
2023/10/29 00:29:20;;;;;;;6.57;4.35;;;11.80;99.90;;;;;;5137422;27;20023;-69
2023/10/29 00:31:46;;;;;;;6.45;3.75;;;11.80;99.90;;;;;;5137829;27;20027;-69
2023/10/29 00:34:12;;;;;;;5.50;4.00;;;11.80;99.90;;;;;;5137319;27;20387;-69
2023/10/29 00:36:37;;;;;;;7.97;4.22;;;11.80;99.90;;;;;;5137474;27;20059;-69
2023/10/29 00:39:03;;;;;;;6.30;4.20;;;11.80;99.90;;;;;;5137410;27;20019;-68
2023/10/29 00:41:30;;;;;;;6.70;4.30;;;11.80;99.90;;;;;;5137158;27;20023;-68
2023/10/29 00:43:56;;;;;;;5.85;4.00;;;11.80;99.90;;;;;;5137598;27;20075;-69
2023/10/29 00:46:23;;;;;;;7.32;4.25;;;11.70;99.90;;;;;;5137034;27;20027;-69
2023/10/29 00:48:50;;;;;;;5.47;4.28;;;11.70;99.90;;;;;;5137290;27;20544;-69
2023/10/29 00:51:16;;;;;;;6.22;4.43;;;11.70;99.90;;;;;;5137023;27;20035;-70
2023/10/29 00:53:43;;;;;;;6.38;4.70;;;11.70;99.90;;;;;;5137103;27;20083;-69
2023/10/29 00:56:10;;;;;;;8.75;4.72;;;11.70;99.90;;;;;;5136963;27;20525;-69
2023/10/29 00:58:36;;;;;;;7.20;4.25;;;11.70;99.90;;;;;;5137362;27;20059;-69
2023/10/29 01:01:02;;;;;;;6.05;4.47;;;11.70;99.90;;;;;;5137134;27;20058;-68
2023/10/29 01:03:27;;;;;;;7.72;4.60;;;11.70;99.90;;;;;;5136622;27;20081;-68
2023/10/29 01:05:53;;;;;;;6.28;4.40;;;11.70;99.90;;;;;;5133174;27;20063;-69
2023/10/29 01:08:19;;;;;;;7.65;4.82;;;11.70;99.90;;;;;;5136663;27;20075;-69
2023/10/29 01:10:45;;;;;;;7.55;4.90;;;11.60;99.90;;;;;;5136665;27;20034;-69
2023/10/29 01:13:11;;;;;;;6.88;4.65;;;11.60;99.90;;;;;;5136499;27;20064;-69
2023/10/29 01:15:36;;;;;;;6.18;4.10;;;11.60;99.90;;;;;;5137064;27;20027;-69
2023/10/29 01:18:02;;;;;;;6.95;5.07;;;11.60;99.90;;;;;;5136893;27;20379;-69
2023/10/29 01:20:28;;;;;;;6.82;4.78;;;11.60;99.90;;;;;;5136168;27;20027;-68
2023/10/29 01:22:54;;;;;;;11.27;5.25;;;11.60;99.90;;;;;;5136440;27;20031;-68
2023/10/29 01:25:21;;;;;;;6.57;4.65;;;11.60;99.90;;;;;;5136315;27;20090;-70
2023/10/29 01:27:47;;;;;;;6.55;4.43;;;11.50;99.90;;;;;;5136665;27;20041;-68
2023/10/29 01:30:13;;;;;;;8.88;5.35;;;11.50;99.90;;;;;;5136111;27;20491;-68
2023/10/29 01:32:38;;;;;;;6.57;4.80;;;11.50;99.90;;;;;;5135805;27;20031;-69
2023/10/29 01:35:04;;;;;;;10.75;4.65;;;11.50;99.90;;;;;;5136083;27;20076;-68
2023/10/29 01:37:30;;;;;;;7.72;4.78;;;11.50;99.90;;;;;;5136135;27;20417;-68
2023/10/29 01:39:56;;;;;;;7.45;5.57;;;11.40;99.90;;;;;;5118081;27;20034;-68
2023/10/29 01:42:22;;;;;;;7.20;5.13;;;11.40;99.90;;;;;;5136338;27;20031;-70
2023/10/29 01:44:48;;;;;;;7.03;5.00;;;11.40;99.90;;;;;;5136476;27;20091;-69
2023/10/29 01:47:13;;;;;;;13.20;6.18;;;11.30;99.90;;;;;;5135961;27;20034;-69
2023/10/29 01:49:39;;;;;;;8.15;5.55;;;11.30;99.90;;;;;;5136345;27;20016;-68
2023/10/29 01:52:05;;;;;;;7.13;4.68;;;11.30;99.90;;;;;;5136342;27;20034;-68
2023/10/29 01:54:31;;;;;;;6.97;5.00;;;11.30;99.90;;;;;;5135986;27;20115;-68
2023/10/29 01:56:56;;;;;;;6.40;5.13;;;11.30;99.90;;;;;;5136141;27;20077;-67
2023/10/29 01:59:22;;;;;;;7.47;4.85;;;11.30;99.90;;;;;;5135754;27;20455;-69
2023/10/29 02:01:49;;;;;;;7.28;5.20;;;11.30;99.90;;;;;;5135877;27;20028;-69
2023/10/29 02:04:14;;;;;;;7.95;5.15;;;11.20;99.90;;;;;;5135545;27;20076;-70
2023/10/29 02:06:40;;;;;;;8.35;5.07;;;11.20;99.90;;;;;;5135942;27;20051;-69
2023/10/29 02:09:08;;;;;;;8.10;6.15;;;11.20;99.90;;;;;;5135863;27;20034;-69
2023/10/29 02:11:37;;;;;;;12.10;7.30;;;11.20;99.90;;;;;;5135516;27;20046;-69
2023/10/29 02:14:04;;;;;;;16.15;8.93;;;11.10;99.90;;;;;;5135576;27;20087;-69
2023/10/29 02:16:29;;;;;;;16.75;9.55;;;11.00;99.90;;;;;;5135195;27;20072;-69
2023/10/29 02:18:55;;;;;;;15.88;9.27;;;10.90;99.90;;;;;;5135603;27;20027;-69
2023/10/29 02:21:22;;;;;;;12.77;7.10;;;10.80;99.90;;;;;;5135237;27;20051;-70
2023/10/29 02:23:48;;;;;;;10.07;6.60;;;10.70;99.90;;;;;;5135589;27;20027;-68
2023/10/29 02:26:14;;;;;;;10.82;6.88;;;10.60;99.90;;;;;;5135448;27;20099;-76
2023/10/29 02:28:39;;;;;;;8.38;6.05;;;10.50;99.90;;;;;;5135665;27;20379;-69
2023/10/29 02:31:05;;;;;;;8.40;5.65;;;10.40;99.90;;;;;;5135280;27;20061;-69
2023/10/29 02:33:31;;;;;;;5.93;4.65;;;10.30;99.90;;;;;;5134925;27;20523;-69
2023/10/29 02:35:57;;;;;;;7.60;6.00;;;10.30;99.90;;;;;;5135705;27;20020;-69
2023/10/29 02:38:25;;;;;;;8.13;6.50;;;10.20;99.90;;;;;;5134986;27;20087;-69
2023/10/29 02:40:51;;;;;;;10.23;6.07;;;10.20;99.90;;;;;;5135475;27;20027;-69
2023/10/29 02:43:17;;;;;;;8.32;6.53;;;10.20;99.90;;;;;;5134821;27;20031;-69
2023/10/29 02:45:42;;;;;;;8.45;6.80;;;10.10;99.90;;;;;;5135221;27;20079;-69
2023/10/29 02:48:08;;;;;;;10.18;6.18;;;10.10;99.90;;;;;;5134968;27;20030;-69
2023/10/29 02:50:38;;;;;;;9.45;6.50;;;10.10;99.90;;;;;;5134719;27;20342;-69
2023/10/29 02:53:03;;;;;;;7.03;6.18;;;10.10;99.90;;;;;;5135187;27;20402;-69
2023/10/29 02:55:29;;;;;;;8.32;6.47;;;10.10;99.90;;;;;;5134409;27;20030;-70
2023/10/29 02:57:54;;;;;;;9.95;6.43;;;10.00;99.90;;;;;;5134640;27;20456;-69
2023/10/29 03:00:20;;;;;;;7.45;5.90;;;10.00;99.90;;;;;;5130553;27;20058;-68
2023/10/29 03:02:46;;;;;;;7.15;6.28;;;10.00;99.90;;;;;;5096577;28;20425;-68
2023/10/29 03:05:12;;;;;;;7.60;6.43;;;10.00;99.90;;;;;;5114183;28;20031;-68
2023/10/29 03:07:38;;;;;;;7.38;5.40;;;10.00;99.90;;;;;;5113693;28;20028;-68
2023/10/29 03:10:04;;;;;;;7.93;6.57;;;9.90;99.90;;;;;;5114149;28;20055;-68
2023/10/29 03:12:30;;;;;;;7.20;6.10;;;9.80;99.90;;;;;;5113663;28;20088;-67
2023/10/29 03:14:56;;;;;;;7.05;5.80;;;9.80;99.90;;;;;;5114032;28;20059;-68
2023/10/29 03:17:22;;;;;;;7.63;6.25;;;9.80;99.90;;;;;;5095329;28;20417;-68
2023/10/29 03:19:48;;;;;;;7.75;5.72;;;9.80;99.90;;;;;;5114004;28;20068;-68
2023/10/29 03:22:13;;;;;;;6.50;5.55;;;9.80;99.90;;;;;;5113864;28;20024;-68
2023/10/29 03:24:39;;;;;;;6.97;5.85;;;9.80;99.90;;;;;;5113175;28;20031;-69
2023/10/29 03:27:05;;;;;;;10.25;6.15;;;9.80;99.90;;;;;;5113594;28;20026;-70
2023/10/29 03:29:30;;;;;;;9.02;6.00;;;9.90;99.90;;;;;;5113356;28;20153;-68
2023/10/29 03:31:56;;;;;;;13.93;6.47;;;9.80;99.90;;;;;;5113505;28;20067;-68
2023/10/29 03:34:22;;;;;;;9.75;6.53;;;9.90;99.90;;;;;;5112715;28;20065;-68
2023/10/29 03:36:47;;;;;;;8.85;6.30;;;9.90;99.90;;;;;;5113491;28;20031;-68
2023/10/29 03:39:13;;;;;;;12.57;6.55;;;9.90;99.90;;;;;;5113600;28;20019;-68
2023/10/29 03:41:38;;;;;;;12.45;7.55;;;9.90;99.90;;;;;;5113547;28;20036;-69
2023/10/29 03:44:04;;;;;;;10.35;7.53;;;9.90;99.90;;;;;;5113611;28;20120;-68
2023/10/29 03:46:30;;;;;;;12.27;7.70;;;9.90;99.90;;;;;;5113227;28;20098;-69
2023/10/29 03:48:56;;;;;;;9.52;7.35;;;9.90;99.90;;;;;;5113312;28;20487;-69
2023/10/29 03:51:21;;;;;;;10.45;7.03;;;9.90;99.90;;;;;;5113207;28;20069;-69
2023/10/29 03:53:47;;;;;;;19.35;7.65;;;9.90;99.90;;;;;;5095568;28;20486;-69
2023/10/29 03:56:12;;;;;;;20.80;9.13;;;9.90;99.90;;;;;;5113234;28;20517;-69
2023/10/29 03:58:38;;;;;;;13.05;9.30;;;9.90;99.90;;;;;;5133043;27;20123;-69
2023/10/29 04:01:04;;;;;;;13.70;9.30;;;9.90;99.90;;;;;;5134090;27;20106;-67
2023/10/29 04:03:30;;;;;;;15.88;10.40;;;9.90;99.90;;;;;;5133347;27;20031;-71
2023/10/29 04:05:56;;;;;;;22.17;10.63;;;9.90;99.90;;;;;;5133813;27;20031;-69
2023/10/29 04:08:22;;;;;;;15.70;10.30;;;10.00;99.90;;;;;;5133164;27;20471;-68
2023/10/29 04:10:47;;;;;;;17.35;11.85;;;10.00;99.90;;;;;;5133798;28;20026;-68
2023/10/29 04:13:14;;;;;;;17.75;11.40;;;10.00;99.90;;;;;;5133761;28;20031;-69
2023/10/29 04:15:39;;;;;;;17.48;11.70;;;10.10;99.90;;;;;;5133106;28;20064;-67
2023/10/29 04:18:05;;;;;;;16.00;12.15;;;10.10;99.90;;;;;;5133689;28;20023;-68
2023/10/29 04:20:31;;;;;;;17.08;12.50;;;10.10;99.90;;;;;;5133119;28;20024;-68
2023/10/29 04:22:56;;;;;;;16.42;12.55;;;10.10;99.90;;;;;;5133509;28;20020;-68
2023/10/29 04:25:22;;;;;;;19.00;12.93;;;10.20;99.90;;;;;;5133207;28;20027;-69
2023/10/29 04:27:48;;;;;;;16.92;13.23;;;10.20;99.90;;;;;;5133372;28;20080;-68
2023/10/29 04:30:13;;;;;;;22.05;14.85;;;10.20;99.90;;;;;;5133450;28;20023;-68
2023/10/29 04:32:39;;;;;;;17.63;14.18;;;10.20;99.90;;;;;;5132992;28;20023;-68
2023/10/29 04:35:05;;;;;;;17.30;12.57;;;10.30;99.90;;;;;;5133654;28;20483;-68
2023/10/29 04:37:31;;;;;;;16.80;14.13;;;10.30;99.90;;;;;;5114745;28;20132;-68
2023/10/29 04:39:56;;;;;;;18.30;13.65;;;10.30;99.90;;;;;;5115156;28;20110;-68
2023/10/29 04:42:22;;;;;;;17.80;13.40;;;10.30;99.90;;;;;;5133594;28;20023;-68
2023/10/29 04:44:47;;;;;;;15.65;12.68;;;10.40;99.90;;;;;;5133176;28;20035;-68
2023/10/29 04:47:13;;;;;;;15.85;12.38;;;10.40;99.90;;;;;;5133460;28;20023;-68
2023/10/29 04:49:39;;;;;;;18.38;12.02;;;10.40;99.90;;;;;;5132933;28;20115;-69
2023/10/29 04:52:05;;;;;;;16.65;12.98;;;10.40;99.90;;;;;;5132529;28;20421;-70
2023/10/29 04:54:31;;;;;;;16.55;12.38;;;10.40;99.90;;;;;;5113272;28;20058;-68
2023/10/29 04:56:57;;;;;;;17.55;13.55;;;10.40;99.90;;;;;;5094515;28;20450;-68
2023/10/29 04:59:22;;;;;;;15.27;12.15;;;10.40;99.90;;;;;;5112554;28;20119;-69
2023/10/29 05:01:48;;;;;;;17.83;13.88;;;10.40;99.90;;;;;;5112365;28;20031;-68
2023/10/29 05:04:13;;;;;;;15.93;12.32;;;10.40;99.90;;;;;;5113437;28;20055;-68
2023/10/29 05:06:39;;;;;;;17.00;13.02;;;10.50;99.90;;;;;;5112733;28;20077;-68
2023/10/29 05:09:05;;;;;;;18.15;13.20;;;10.40;99.90;;;;;;5114666;28;20032;-69
2023/10/29 05:11:31;;;;;;;18.80;13.20;;;10.40;99.90;;;;;;5116132;28;20027;-69
2023/10/29 05:13:57;;;;;;;16.45;12.48;;;10.40;99.90;;;;;;5116619;28;20028;-69
2023/10/29 05:16:23;;;;;;;18.00;12.95;;;10.50;99.90;;;;;;5116498;28;20373;-69
2023/10/29 05:18:48;;;;;;;20.48;13.88;;;10.40;99.90;;;;;;5115735;28;20389;-69
2023/10/29 05:21:14;;;;;;;18.38;14.82;;;10.50;99.90;;;;;;5097695;28;20464;-69
2023/10/29 05:23:40;;;;;;;21.30;14.43;;;10.50;99.90;;;;;;5115711;28;20118;-69
2023/10/29 05:26:06;;;;;;;20.60;14.07;;;10.50;99.90;;;;;;5116191;28;20031;-69
2023/10/29 05:28:31;;;;;;;21.73;14.45;;;10.50;99.90;;;;;;5115589;28;20073;-69
2023/10/29 05:30:57;;;;;;;21.38;15.13;;;10.50;99.90;;;;;;5116100;28;20027;-69
2023/10/29 05:33:22;;;;;;;19.40;13.90;;;10.50;99.90;;;;;;5115801;28;20031;-69
2023/10/29 05:35:48;;;;;;;21.25;13.50;;;10.60;99.90;;;;;;5115542;28;20084;-69
2023/10/29 05:38:14;;;;;;;18.63;13.95;;;10.60;99.90;;;;;;5115507;28;20031;-69
2023/10/29 05:40:39;;;;;;;16.88;13.63;;;10.60;99.90;;;;;;5115233;28;20371;-69
2023/10/29 05:43:05;;;;;;;15.55;12.18;;;10.60;99.90;;;;;;5115781;28;20464;-69
2023/10/29 05:45:31;;;;;;;13.80;11.45;;;10.60;99.90;;;;;;5114803;28;20019;-70
2023/10/29 05:47:56;;;;;;;13.98;11.77;;;10.60;99.90;;;;;;5115622;28;20031;-69
2023/10/29 05:50:23;;;;;;;16.20;11.48;;;10.60;99.90;;;;;;5097312;28;20034;-69
2023/10/29 05:52:49;;;;;;;13.07;10.82;;;10.60;99.90;;;;;;5115101;28;20483;-69
2023/10/29 05:55:14;;;;;;;16.33;11.02;;;10.60;99.90;;;;;;5096831;28;20027;-69
2023/10/29 05:57:40;;;;;;;12.10;10.40;;;10.60;99.90;;;;;;5115007;28;20059;-69
2023/10/29 06:00:07;;;;;;;11.90;10.68;;;10.60;99.90;;;;;;5115539;28;20380;-68
2023/10/29 06:02:33;;;;;;;11.43;10.15;;;10.60;99.90;;;;;;5115271;28;20380;-70
2023/10/29 06:04:58;;;;;;;11.57;9.70;;;10.60;99.90;;;;;;5126156;27;20023;-69
2023/10/29 06:07:24;;;;;;;16.30;10.57;;;10.60;99.90;;;;;;5136087;27;20100;-68
2023/10/29 06:09:50;;;;;;;12.75;10.02;;;10.60;99.90;;;;;;5135621;27;20023;-69
2023/10/29 06:12:18;;;;;;;12.77;10.05;;;10.60;99.90;;;;;;5135826;27;20019;-69
2023/10/29 06:14:45;;;;;;;12.77;10.23;;;10.60;99.90;;;;;;5135419;27;20030;-69
2023/10/29 06:17:11;;;;;;;12.60;9.82;;;10.60;99.90;;;;;;5135840;27;20027;-69
2023/10/29 06:19:37;;;;;;;12.30;9.32;;;10.60;99.90;;;;;;5116339;27;20051;-69
2023/10/29 06:22:05;;;;;;;12.23;9.90;;;10.60;99.90;;;;;;5135796;27;20061;-68
2023/10/29 06:24:31;;;;;;;12.13;9.32;;;10.60;99.90;;;;;;5135118;27;20039;-75
2023/10/29 06:26:57;;;;;;;11.50;9.38;;;10.60;99.90;;;;;;5135129;27;20179;-68
2023/10/29 06:29:22;;;;;;;12.45;9.95;;;10.60;99.90;;;;;;5135597;27;20027;-68
2023/10/29 06:31:48;;;;;;;11.20;8.80;;;10.60;99.90;;;;;;5134708;27;20102;-69
2023/10/29 06:34:14;;;;;;;9.23;7.85;;;10.60;99.90;;;;;;5135707;27;20067;-68
2023/10/29 06:36:39;;;;;;;10.82;8.35;;;10.50;99.90;;;;;;5134656;27;20049;-69
2023/10/29 06:39:05;;;;;;;11.93;8.82;;;10.60;99.90;;;;;;5135249;27;20034;-69
2023/10/29 06:41:31;;;;;;;10.52;8.73;;;10.50;99.90;;;;;;5135368;27;20110;-69
2023/10/29 06:43:56;;;;;;;14.07;10.00;;;10.50;99.90;;;;;;5117049;27;20122;-69
2023/10/29 06:46:22;;;;;;;11.82;8.98;;;10.50;99.90;;;;;;5121222;27;20034;-69
2023/10/29 06:48:48;;;;;;;13.23;9.50;;;10.50;99.90;;;;;;5114223;28;20030;-69
2023/10/29 06:51:15;;;;;;;12.50;8.88;;;10.50;99.90;;;;;;5114590;28;20027;-69
2023/10/29 06:53:41;;;;;;;10.65;8.45;;;10.50;99.90;;;;;;5114363;28;20031;-69
2023/10/29 06:56:07;;;;;;;13.10;9.35;;;10.50;99.90;;;;;;5114493;28;20421;-69
2023/10/29 06:58:33;;;;;;;12.55;9.50;;;10.50;99.90;;;;;;5113779;28;20492;-74
2023/10/29 07:01:06;;;;;;;11.70;8.65;;;10.50;99.90;;;;;;5114302;28;20031;-69
2023/10/29 07:03:32;;;;;;;14.20;10.15;;;10.50;99.90;;;;;;5114053;28;20040;-69
2023/10/29 07:06:09;;;;;;;14.68;9.80;;;10.50;99.90;;;;;;5113871;28;20024;-69
2023/10/29 07:08:35;;;;;;;13.73;10.07;;;10.40;99.90;;;;;;5113747;28;20383;-70
2023/10/29 07:11:02;;;;;;;18.52;10.45;;;10.40;99.90;;;;;;5114107;28;20023;-69
2023/10/29 07:13:29;;;;;;;14.32;10.15;;;10.40;99.90;;;;;;5114045;28;20027;-68
2023/10/29 07:15:56;;;;;;;12.82;9.38;;;10.40;99.90;;;;;;5113843;28;20026;-68
2023/10/29 07:18:23;;;;;;;15.27;10.68;;;10.40;99.90;;;;;;5114125;28;20028;-68
2023/10/29 07:20:52;;;;;;;15.13;9.80;;;10.40;99.90;;;;;;5113688;28;20027;-69
2023/10/29 07:23:19;;;;;;;15.90;10.95;;;10.40;99.90;;;;;;5113888;28;20124;-68
2023/10/29 07:25:45;;;;;;;13.10;9.68;;;10.50;99.90;;;;;;5113265;28;20477;-68
2023/10/29 07:28:10;;;;;;;15.32;9.43;;;10.40;99.90;;;;;;5113955;28;20118;-68
2023/10/29 07:30:36;;;;;;;12.77;9.52;;;10.40;99.90;;;;;;5112923;28;20028;-73
2023/10/29 07:33:01;;;;;;;14.15;10.18;;;10.40;99.90;;;;;;5113878;28;20059;-68
2023/10/29 07:35:27;;;;;;;13.50;10.65;;;10.40;99.90;;;;;;5113806;28;20024;-68
2023/10/29 07:37:53;;;;;;;15.15;10.73;;;10.40;99.90;;;;;;5113361;28;20027;-68
2023/10/29 07:40:18;;;;;;;16.75;10.50;;;10.40;99.90;;;;;;5113371;28;20042;-68
2023/10/29 07:42:44;;;;;;;13.55;9.68;;;10.50;99.90;;;;;;5113308;28;20024;-69
2023/10/29 07:45:10;;;;;;;15.82;9.45;;;10.50;99.90;;;;;;5113647;28;20050;-69
2023/10/29 07:47:36;;;;;;;13.73;9.93;;;10.40;99.90;;;;;;5113578;28;20028;-71
2023/10/29 07:50:01;;;;;;;17.13;10.85;;;10.50;99.90;;;;;;5113068;28;20437;-69
2023/10/29 07:52:27;;;;;;;18.98;12.23;;;10.50;99.90;;;;;;5095553;28;20028;-69
2023/10/29 07:54:53;;;;;;;17.60;11.90;;;10.50;99.90;;;;;;5094953;28;20118;-69
2023/10/29 07:57:18;;;;;;;14.43;10.32;;;10.50;99.90;;;;;;5113228;28;20047;-69
2023/10/29 07:59:44;;;;;;;15.00;10.45;;;10.50;99.90;;;;;;5112807;28;20487;-69
2023/10/29 08:02:09;;;;;;;22.17;11.32;;;10.50;99.90;;;;;;5113378;28;20028;-68
2023/10/29 08:04:35;;;;;;;15.70;11.85;;;10.50;99.90;;;;;;5113353;28;20074;-70
2023/10/29 08:07:01;;;;;;;19.00;13.38;;;10.50;99.90;;;;;;5112681;28;20035;-69
2023/10/29 08:09:27;;;;;;;17.52;13.45;;;10.60;99.90;;;;;;5121817;27;20102;-69
2023/10/29 08:11:52;;;;;;;21.92;14.70;;;10.60;99.90;;;;;;5133109;27;20100;-69
2023/10/29 08:14:18;;;;;;;24.40;16.08;;;10.60;99.90;;;;;;5115386;28;20027;-69
2023/10/29 08:16:43;;;;;;;24.20;16.30;;;10.60;99.90;;;;;;5132930;28;20075;-69
2023/10/29 08:19:09;;;;;;;23.65;15.48;;;10.70;99.90;;;;;;5134007;28;20028;-69
2023/10/29 08:21:35;;;;;;;23.70;16.73;;;10.70;99.90;;;;;;5133827;28;20019;-69
2023/10/29 08:24:01;;;;;;;22.63;15.68;;;10.70;99.90;;;;;;5133158;28;20038;-69
2023/10/29 08:26:28;;;;;;;22.00;14.77;;;10.70;99.90;;;;;;5133947;28;20054;-68
2023/10/29 08:28:54;;;;;;;23.67;14.98;;;10.70;99.90;;;;;;5133127;28;20102;-69
2023/10/29 08:31:21;;;;;;;20.50;14.43;;;10.80;99.90;;;;;;5133332;28;20111;-68
2023/10/29 08:33:47;;;;;;;21.75;14.70;;;10.80;99.90;;;;;;5133391;28;20076;-69
2023/10/29 08:36:16;;;;;;;18.90;14.30;;;10.80;99.90;;;;;;5115762;28;20024;-69
2023/10/29 08:38:42;;;;;;;17.85;13.57;;;10.80;99.90;;;;;;5133038;28;20031;-69
2023/10/29 08:41:17;;;;;;;17.73;13.55;;;10.90;99.90;;;;;;5133489;28;20042;-68
2023/10/29 08:43:44;;;;;;;19.50;12.77;;;10.90;99.90;;;;;;5136505;27;20035;-69
2023/10/29 08:46:10;;;;;;;20.58;15.18;;;10.90;99.90;;;;;;5126374;27;20039;-68
2023/10/29 08:48:36;;;;;;;16.42;12.73;;;10.90;99.90;;;;;;5098834;28;20066;-68
2023/10/29 08:51:01;;;;;;;17.98;12.90;;;10.90;99.90;;;;;;5116653;28;20023;-68
2023/10/29 08:53:27;;;;;;;15.18;11.88;;;10.90;99.90;;;;;;5116991;28;20034;-68
2023/10/29 08:55:52;;;;;;;19.92;11.95;;;11.00;99.90;;;;;;5116833;28;20076;-68
2023/10/29 08:58:20;;;;;;;16.35;12.27;;;11.00;99.90;;;;;;5116502;28;20044;-69
2023/10/29 09:00:46;;;;;;;15.25;12.07;;;11.00;99.90;;;;;;5115904;28;20380;-69
2023/10/29 09:03:15;;;;;;;13.63;11.10;;;11.00;99.90;;;;;;5116527;28;20114;-69
2023/10/29 09:05:42;;;;;;;15.80;11.13;;;11.00;99.90;;;;;;5116373;28;20487;-76
2023/10/29 09:08:08;;;;;;;14.10;11.32;;;11.10;99.90;;;;;;5116687;28;20023;-69
2023/10/29 09:10:34;;;;;;;15.68;12.10;;;11.10;99.90;;;;;;5116562;28;20038;-70
2023/10/29 09:12:59;;;;;;;14.90;12.00;;;11.10;99.90;;;;;;5116161;28;20047;-68
2023/10/29 09:15:26;;;;;;;15.77;12.43;;;11.20;99.90;;;;;;5116123;28;20072;-68
2023/10/29 09:17:52;;;;;;;16.20;11.30;;;11.20;99.90;;;;;;5115953;28;20019;-68
2023/10/29 09:20:19;;;;;;;13.18;10.35;;;11.20;99.90;;;;;;5098277;28;20440;-68
2023/10/29 09:22:45;;;;;;;17.17;10.55;;;11.20;99.90;;;;;;5115971;28;20429;-69
2023/10/29 09:25:10;;;;;;;12.82;9.85;;;11.20;99.90;;;;;;5116606;28;20062;-69
2023/10/29 09:27:36;;;;;;;13.50;10.73;;;11.20;99.90;;;;;;5116331;28;20034;-70
2023/10/29 09:30:02;;;;;;;13.73;10.00;;;11.20;99.90;;;;;;5115411;28;20046;-69
2023/10/29 09:32:28;;;;;;;19.23;10.65;;;11.20;99.90;;;;;;5116077;28;20024;-69
2023/10/29 09:34:54;;;;;;;13.82;10.13;;;11.30;99.90;;;;;;5115445;28;20396;-69
2023/10/29 09:37:21;;;;;;;16.60;10.70;;;11.30;99.90;;;;;;5098136;28;20035;-69
2023/10/29 09:39:47;;;;;;;11.23;10.05;;;11.30;99.90;;;;;;5116182;28;20031;-69
2023/10/29 09:42:18;;;;;;;15.63;10.38;;;11.30;99.90;;;;;;5116313;28;20028;-69
2023/10/29 09:44:47;;;;;;;13.27;10.07;;;11.30;99.90;;;;;;5115930;28;20128;-69
2023/10/29 09:47:17;;;;;;;12.13;9.35;;;11.40;99.90;;;;;;5115881;28;20032;-69
2023/10/29 09:49:43;;;;;;;11.32;8.93;;;11.40;99.90;;;;;;5115663;28;20031;-69
2023/10/29 09:52:09;;;;;;;10.48;8.68;;;11.40;99.90;;;;;;5115064;28;20055;-68
2023/10/29 09:54:38;;;;;;;13.80;9.52;;;11.50;99.90;;;;;;5114486;28;20459;-68
2023/10/29 09:57:06;;;;;;;14.32;9.63;;;11.50;99.90;;;;;;5115094;28;20056;-69
2023/10/29 09:59:32;;;;;;;13.88;9.32;;;11.50;99.90;;;;;;5115685;28;20115;-69
2023/10/29 10:01:57;;;;;;;13.60;9.40;;;11.60;99.90;;;;;;5115428;28;20077;-69
2023/10/29 10:04:23;;;;;;;10.85;8.75;;;11.60;99.90;;;;;;5115314;28;20028;-69
2023/10/29 10:06:50;;;;;;;15.65;10.35;;;11.60;99.90;;;;;;5096735;28;20421;-69
2023/10/29 10:09:15;;;;;;;12.30;8.98;;;11.70;99.90;;;;;;5115066;28;20038;-68
2023/10/29 10:11:41;;;;;;;13.18;9.10;;;11.70;99.90;;;;;;5115234;28;20020;-68
2023/10/29 10:14:06;;;;;;;12.70;9.25;;;11.70;99.90;;;;;;5114995;27;20648;-70
2023/10/29 10:16:32;;;;;;;11.82;8.25;;;11.80;99.90;;;;;;5135546;27;20482;-69
2023/10/29 10:18:59;;;;;;;9.48;8.20;;;11.80;99.90;;;;;;5135281;27;20023;-67
2023/10/29 10:21:39;;;;;;;12.25;9.23;;;11.90;99.90;;;;;;5135369;27;20023;-68
2023/10/29 10:24:05;;;;;;;14.32;8.57;;;11.90;99.90;;;;;;5135289;27;20087;-68
2023/10/29 10:26:35;;;;;;;10.13;7.55;;;11.90;99.90;;;;;;5135461;27;20031;-68
2023/10/29 10:29:05;;;;;;;12.75;6.35;;;12.00;99.90;;;;;;5135083;27;20541;-68
2023/10/29 10:31:33;;;;;;;13.40;6.90;;;12.00;99.90;;;;;;5116944;27;20301;-69
2023/10/29 10:34:18;;;;;;;8.55;7.15;;;12.10;99.90;;;;;;5134731;27;20026;-70
2023/10/29 10:36:45;;;;;;;8.57;5.40;;;12.20;99.90;;;;;;5135585;27;20382;-70
2023/10/29 10:39:12;;;;;;;7.90;5.18;;;12.20;99.90;;;;;;5134808;27;20062;-69
2023/10/29 10:41:44;;;;;;;7.40;5.13;;;12.30;99.90;;;;;;5121001;27;20076;-69
2023/10/29 10:44:12;;;;;;;7.53;5.43;;;12.30;99.90;;;;;;5114327;28;20031;-69
2023/10/29 10:46:49;;;;;;;7.72;5.13;;;12.40;99.90;;;;;;5114425;28;20046;-69
2023/10/29 10:49:16;;;;;;;7.32;5.30;;;12.50;99.90;;;;;;5114792;28;20478;-69
2023/10/29 10:51:41;;;;;;;11.30;5.05;;;12.70;99.90;;;;;;5114639;28;20023;-68
2023/10/29 10:54:08;;;;;;;8.35;5.47;;;12.80;99.90;;;;;;5096131;28;20041;-67
2023/10/29 10:56:37;;;;;;;8.80;4.60;;;12.90;99.90;;;;;;5114374;28;20541;-67
2023/10/29 10:59:08;;;;;;;7.55;4.75;;;13.10;99.90;;;;;;5114027;28;20058;-67
2023/10/29 11:01:38;;;;;;;7.65;4.50;;;13.30;99.90;;;;;;5114003;28;20436;-68
2023/10/29 11:04:07;;;;;;;7.67;4.70;;;13.50;99.90;;;;;;5113882;28;20479;-70
2023/10/29 11:06:36;;;;;;;5.95;3.88;;;13.70;99.90;;;;;;5094708;28;20027;-68
2023/10/29 11:09:02;;;;;;;7.40;4.20;;;13.90;99.90;;;;;;5113675;28;20410;-68
2023/10/29 11:11:38;;;;;;;5.70;4.15;;;14.00;99.90;;;;;;5114012;28;20034;-68
2023/10/29 11:14:11;;;;;;;8.05;4.75;;;14.20;99.90;;;;;;5113507;28;20027;-68
2023/10/29 11:16:53;;;;;;;7.50;4.68;;;14.30;99.90;;;;;;5114052;28;20070;-69
2023/10/29 11:19:43;;;;;;;7.90;4.38;;;14.50;99.90;;;;;;5113403;28;20391;-69
2023/10/29 11:22:18;;;;;;;6.88;4.20;;;14.60;99.90;;;;;;5113402;28;20023;-68
2023/10/29 11:25:04;;;;;;;6.53;4.05;;;14.80;99.90;;;;;;5113619;28;20123;-68
2023/10/29 11:27:43;;;;;;;9.35;5.20;;;14.90;99.90;;;;;;5113662;28;20026;-69
2023/10/29 11:30:22;;;;;;;11.05;4.53;;;15.00;99.90;;;;;;5113366;28;20131;-70
2023/10/29 11:33:12;;;;;;;5.15;4.05;;;15.20;99.90;;;;;;5113495;28;20034;-69
2023/10/29 11:35:38;;;;;;;7.18;3.92;;;15.30;99.90;;;;;;5113683;28;20470;-69
2023/10/29 11:38:27;;;;;;;5.65;3.83;;;15.40;99.90;;;;;;5118535;27;20524;-69
2023/10/29 11:40:53;;;;;;;8.63;3.85;;;15.50;99.90;;;;;;5117375;27;20031;-76
2023/10/29 11:43:22;;;;;;;6.90;3.63;;;15.60;99.90;;;;;;5125334;27;20035;-71
2023/10/29 11:46:01;;;;;;;4.78;3.58;;;15.70;99.90;;;;;;5113508;28;20034;-71
2023/10/29 11:48:31;;;;;;;4.63;2.90;;;15.80;99.90;;;;;;5119513;27;20023;-70
2023/10/29 11:51:08;;;;;;;6.15;3.40;;;15.80;99.90;;;;;;5133876;27;20540;-72
2023/10/29 11:53:35;;;;;;;7.30;4.13;;;16.00;99.90;;;;;;5127080;27;20382;-75
2023/10/29 11:56:05;;;;;;;4.60;3.47;;;16.00;99.90;;;;;;5121189;27;20399;-74
2023/10/29 11:58:31;;;;;;;9.53;4.37;;;16.10;99.90;;;;;;5131208;27;20050;-75
2023/10/29 12:00:59;;;;;;;6.35;3.20;;;16.10;99.90;;;;;;5114412;27;20027;-75
2023/10/29 12:03:25;;;;;;;7.07;3.20;;;16.10;99.90;;;;;;5133602;27;20065;-75
2023/10/29 12:05:53;;;;;;;6.50;3.33;;;16.10;99.90;;;;;;5131215;27;20038;-75
2023/10/29 12:08:19;;;;;;;6.47;3.10;;;16.10;99.90;;;;;;5112925;28;20027;-77
2023/10/29 12:11:03;;;;;;;5.85;2.78;;;16.00;99.90;;;;;;5130508;27;20024;-75
2023/10/29 12:13:41;;;;;;;5.68;3.00;;;16.00;99.90;;;;;;5134428;28;20027;-76
2023/10/29 12:16:07;;;;;;;5.25;3.30;;;16.00;99.90;;;;;;5133655;28;20023;-75
2023/10/29 12:18:33;;;;;;;5.13;3.13;;;15.90;99.90;;;;;;5133692;27;20497;-76
2023/10/29 12:21:03;;;;;;;5.30;3.63;;;15.90;99.90;;;;;;5132586;28;20024;-73
2023/10/29 12:23:30;;;;;;;8.60;3.75;;;15.90;99.90;;;;;;5133909;28;20123;-73
2023/10/29 12:25:56;;;;;;;10.07;4.38;;;15.90;99.90;;;;;;5133828;28;20031;-76
2023/10/29 12:28:22;;;;;;;8.15;4.53;;;15.80;99.90;;;;;;5133459;28;20027;-76
2023/10/29 12:30:50;;;;;;;11.15;4.20;;;15.80;99.90;;;;;;5133680;28;20400;-76
2023/10/29 12:33:19;;;;;;;7.28;3.53;;;15.80;99.90;;;;;;5103642;28;20036;-75
2023/10/29 12:35:47;;;;;;;7.47;3.78;;;15.80;99.90;;;;;;5133625;28;20140;-75